Time;durP1;ratioP1;P1;durP2;ratioP2;P2;SDS_P1;SDS_P2;PMS_P1;PMS_P2;Temp;Humidity;BMP_temperature;BMP_pressure;BME280_temperature;BME280_humidity;BME280_pressure;Samples;Min_cycle;Max_cycle;Signal;HPM_P1;HPM_P2
2021/12/04 00:01:16;;;;;;;;;0.00;0.00;;;;;10.93;80.96;99104.09;4806746;29;48017;-85
2021/12/04 00:07:07;;;;;;;;;0.00;0.00;;;;;11.25;82.01;99128.00;4828462;29;45583;-84
2021/12/04 00:09:32;;;;;;;;;0.00;0.00;;;;;11.06;81.65;99080.16;4829378;29;45462;-85
2021/12/04 00:12:06;;;;;;;;;0.00;0.00;;;;;11.25;82.09;99093.09;4814731;29;47341;-86
2021/12/04 00:14:33;;;;;;;;;0.00;0.00;;;;;11.39;82.52;99097.00;4827231;29;45135;-87
2021/12/04 00:17:00;;;;;;;;;0.00;0.00;;;;;11.09;82.34;99040.53;4809092;29;45715;-85
2021/12/04 00:19:26;;;;;;;;;0.00;0.00;;;;;11.31;82.59;99066.28;4801529;29;47307;-86
2021/12/04 00:21:52;;;;;;;;;0.00;0.00;;;;;11.11;82.78;99025.47;4800846;29;47317;-87
2021/12/04 00:24:18;;;;;;;;;0.00;0.00;;;;;11.53;82.77;99092.00;4798011;29;46061;-86
2021/12/04 00:26:44;;;;;;;;;0.00;0.00;;;;;11.58;82.83;99089.75;4816361;29;45561;-85
2021/12/04 00:29:11;;;;;;;;;0.00;0.00;;;;;11.11;83.08;99012.38;4805966;29;47328;-88
2021/12/04 00:31:37;;;;;;;;;0.00;0.00;;;;;11.58;83.17;99060.06;4828506;29;46498;-87
2021/12/04 00:34:03;;;;;;;;;0.00;0.00;;;;;11.43;83.02;99040.63;4827477;29;45474;-86
2021/12/04 00:49:57;;;;;;;;;0.00;0.00;;;;;11.86;84.56;99042.41;4821623;29;45361;-88
2021/12/04 00:52:23;;;;;;;;;0.00;0.00;;;;;12.05;84.67;99063.19;4800378;29;47329;-87
2021/12/04 00:54:50;;;;;;;;;1.00;0.00;;;;;12.11;85.02;99071.25;4795110;29;45618;-87
2021/12/04 00:57:15;;;;;;;;;0.00;0.00;;;;;11.93;84.99;99036.38;4796554;29;45533;-88
2021/12/04 00:59:41;;;;;;;;;0.00;0.00;;;;;11.87;84.67;99007.34;4795060;29;48258;-85
2021/12/04 01:02:06;;;;;;;;;0.00;0.00;;;;;12.01;84.80;99025.09;4796154;29;46988;-85
2021/12/04 01:04:33;;;;;;;;;0.00;0.00;;;;;11.94;84.49;98997.84;4797405;29;45525;-85
2021/12/04 01:06:59;;;;;;;;;0.00;0.00;;;;;12.29;84.21;99049.34;4813666;29;45492;-86
2021/12/04 01:09:25;;;;;;;;;0.00;0.00;;;;;12.14;83.92;99015.00;4807209;29;48151;-86
2021/12/04 01:11:54;;;;;;;;;0.00;0.00;;;;;11.99;83.66;98983.25;4793856;29;46278;-86
2021/12/04 01:14:28;;;;;;;;;0.00;0.00;;;;;12.25;83.40;99024.41;4792170;29;45722;-88
2021/12/04 01:20:19;;;;;;;;;0.00;0.00;;;;;12.60;83.63;99071.44;4807979;29;45717;-88
2021/12/04 01:22:45;;;;;;;;;0.00;0.00;;;;;12.50;83.37;99045.31;4792948;29;48318;-87
2021/12/04 01:25:10;;;;;;;;;0.00;0.00;;;;;12.20;83.66;98995.97;4792826;29;45800;-86
2021/12/04 01:27:37;;;;;;;;;0.00;0.00;;;;;12.40;83.98;99028.06;4795706;29;45544;-87
2021/12/04 01:30:06;;;;;;;;;0.00;0.00;;;;;12.04;83.82;98951.28;4810594;29;47725;-87
2021/12/04 01:35:54;;;;;;;;;0.00;0.00;;;;;12.65;84.38;99055.22;4806983;29;45574;-87
2021/12/04 01:38:20;;;;;;;;;0.00;0.00;;;;;12.16;84.45;98995.47;4792969;29;45976;-88
2021/12/04 01:40:48;;;;;;;;;0.00;0.00;;;;;12.11;84.67;98983.78;4794551;29;47298;-88
2021/12/04 01:43:14;;;;;;;;;0.00;0.00;;;;;12.08;84.89;98971.81;4810038;29;47022;-87
2021/12/04 01:45:39;;;;;;;;;0.00;0.00;;;;;12.50;85.04;99057.63;4810802;29;45726;-86
2021/12/04 01:51:27;;;;;;;;;0.00;0.00;;;;;12.66;85.42;99064.72;4809913;29;45846;-89
2021/12/04 01:53:53;;;;;;;;;0.00;0.00;;;;;12.44;85.24;99034.63;4791651;29;46202;-86
2021/12/04 01:56:22;;;;;;;;;0.00;0.00;;;;;12.24;85.57;99012.25;4809436;29;45681;-87
2021/12/04 01:58:50;;;;;;;;;0.00;0.00;;;;;12.66;85.72;99068.19;4793520;29;45587;-85
2021/12/04 02:01:15;;;;;;;;;0.00;0.00;;;;;12.24;86.14;99012.25;4796015;29;45647;-88
2021/12/04 02:07:04;;;;;;;;;0.00;0.00;;;;;12.60;85.89;99066.19;4812705;29;45705;-84
2021/12/04 02:09:35;;;;;;;;;0.00;0.00;;;;;12.68;85.56;99079.38;4815425;29;45572;-84
2021/12/04 02:12:05;;;;;;;;;0.00;0.00;;;;;12.54;86.44;99049.25;4814652;29;46578;-84
2021/12/04 02:14:36;;;;;;;;;0.00;0.00;;;;;12.49;86.01;99045.47;4819746;29;45242;-85
2021/12/04 02:17:03;;;;;;;;;0.00;0.00;;;;;12.76;85.86;99086.44;4823882;29;45392;-88
2021/12/04 02:23:34;;;;;;;;;0.00;0.00;;;;;12.41;85.71;99006.88;4811697;29;45662;-87
2021/12/04 02:25:59;;;;;;;;;0.00;0.00;;;;;12.81;85.79;99097.28;4813038;29;45849;-89
2021/12/04 02:28:25;;;;;;;;;0.00;0.00;;;;;12.79;86.07;99078.25;4796887;29;45703;-87
2021/12/04 02:30:50;;;;;;;;;0.00;0.00;;;;;12.59;85.52;99040.91;4813630;29;45751;-86
2021/12/04 02:33:17;;;;;;;;;0.00;0.00;;;;;12.39;85.65;98987.00;4812280;29;46540;-89
2021/12/04 02:35:48;;;;;;;;;0.00;0.00;;;;;12.98;85.51;99081.41;4795671;29;47565;-89
2021/12/04 02:38:15;;;;;;;;;0.00;0.00;;;;;12.82;85.04;99056.88;4791661;29;45810;-87
2021/12/04 02:40:43;;;;;;;;;0.00;0.00;;;;;13.07;85.13;99087.47;4806509;29;45723;-87
2021/12/04 02:43:09;;;;;;;;;0.00;0.00;;;;;13.12;84.36;99081.78;4790618;29;46700;-86
2021/12/04 02:45:34;;;;;;;;;0.00;0.00;;;;;12.96;84.34;99056.25;4789924;29;47587;-87
2021/12/04 02:48:01;;;;;;;;;0.00;0.00;;;;;13.20;84.13;99079.16;4791331;29;45721;-87
2021/12/04 02:50:32;;;;;;;;;0.00;0.00;;;;;13.22;83.44;99095.59;4790750;29;45898;-88
2021/12/04 02:52:58;;;;;;;;;0.00;0.00;;;;;13.08;83.48;99056.75;4789901;29;48346;-89
2021/12/04 02:55:23;;;;;;;;;0.00;0.00;;;;;12.96;83.08;99027.34;4789910;29;47129;-87
2021/12/04 02:57:49;;;;;;;;;0.00;0.00;;;;;13.28;83.31;99095.75;4791393;29;45669;-88
2021/12/04 03:00:17;;;;;;;;;0.00;0.00;;;;;13.31;82.58;99105.97;4804815;29;45936;-88
2021/12/04 03:02:43;;;;;;;;;0.00;0.00;;;;;13.33;82.36;99111.88;4790340;29;47889;-89
2021/12/04 03:05:10;;;;;;;;;0.00;0.00;;;;;13.24;82.59;99083.94;4789860;29;47736;-87
2021/12/04 03:07:36;;;;;;;;;0.00;0.00;;;;;12.85;82.01;99025.84;4791597;29;45735;-85
2021/12/04 03:10:08;;;;;;;;;0.00;0.00;;;;;12.85;81.86;99014.50;4793224;29;45733;-87
2021/12/04 03:12:35;;;;;;;;;0.00;0.00;;;;;13.25;82.05;99075.06;4808442;29;48539;-88
2021/12/04 03:15:01;;;;;;;;;0.00;0.00;;;;;13.37;82.30;99096.59;4796163;29;46338;-89
2021/12/04 03:17:26;;;;;;;;;0.00;0.00;;;;;12.95;83.06;99030.97;4798177;29;45734;-87
2021/12/04 03:23:28;;;;;;;;;0.00;0.00;;;;;13.05;83.04;99050.03;4815668;29;45645;-87
2021/12/04 03:25:56;;;;;;;;;0.00;0.00;;;;;12.84;83.55;99018.13;4800068;29;47135;-87
2021/12/04 03:28:22;;;;;;;;;0.00;0.00;;;;;13.00;83.64;99061.03;4799926;29;45698;-88
2021/12/04 03:30:53;;;;;;;;;0.00;0.00;;;;;13.17;83.99;99090.03;4798800;29;45590;-87
2021/12/04 03:41:19;;;;;;;;;0.00;0.00;;;;;13.04;83.49;99061.53;4813787;29;45724;-88
2021/12/04 03:43:44;;;;;;;;;0.00;0.00;;;;;12.74;83.15;99006.97;4794175;29;47333;-87
2021/12/04 03:46:14;;;;;;;;;0.00;0.00;;;;;12.71;82.56;99012.53;4797885;29;48197;-87
2021/12/04 03:51:10;;;;;;;;;0.00;0.00;;;;;13.19;81.80;99070.44;4815106;29;45499;-88
2021/12/04 03:53:39;;;;;;;;;0.00;0.00;;;;;13.01;81.60;99052.16;4795960;29;48706;-88
2021/12/04 03:56:06;;;;;;;;;0.00;0.00;;;;;13.23;81.56;99071.75;4795335;29;46482;-87
2021/12/04 03:58:32;;;;;;;;;0.00;0.00;;;;;13.28;81.34;99066.03;4791877;29;45722;-87
2021/12/04 04:00:58;;;;;;;;;0.00;0.00;;;;;13.30;80.86;99071.94;4792605;29;45656;-88
2021/12/04 04:03:27;;;;;;;;;0.00;0.00;;;;;13.15;80.68;99052.53;4792105;29;47452;-89
2021/12/04 04:05:53;;;;;;;;;0.00;0.00;;;;;12.78;80.76;98982.00;4792223;29;48326;-87
2021/12/04 04:08:18;;;;;;;;;0.00;0.00;;;;;13.00;80.55;99031.31;4792320;29;45682;-87
2021/12/04 04:10:51;;;;;;;;;0.00;0.00;;;;;13.37;80.53;99078.19;4807025;29;45960;-88
2021/12/04 04:13:17;;;;;;;;;0.00;0.00;;;;;13.23;80.71;99050.72;4794208;29;47601;-88
2021/12/04 04:16:01;;;;;;;;;1.00;0.00;;;;;13.30;80.31;99050.88;4795385;29;48055;-89
2021/12/04 04:18:32;;;;;;;;;0.00;0.00;;;;;13.42;80.04;99081.16;4811770;29;45721;-89
2021/12/04 04:21:03;;;;;;;;;0.00;0.00;;;;;13.41;80.20;99087.38;4795404;29;45807;-90
2021/12/04 04:23:31;;;;;;;;;0.00;0.00;;;;;12.95;80.42;99021.28;4793438;29;48269;-89
2021/12/04 04:26:23;;;;;;;;;0.00;0.00;;;;;13.22;80.59;99050.91;4807879;29;47841;-89
2021/12/04 04:28:51;;;;;;;;;1.00;0.00;;;;;13.03;80.91;99015.19;4734290;30;45813;-87
2021/12/04 04:31:16;;;;;;;;;0.00;0.00;;;;;13.33;81.19;99077.66;4733781;30;46085;-89
2021/12/04 04:33:44;;;;;;;;;0.00;0.00;;;;;13.16;80.76;99049.75;4718600;30;45960;-88
2021/12/04 04:59:04;;;;;;;;;0.00;0.00;;;;;13.28;79.60;99066.03;4691487;30;45859;-86
2021/12/04 05:13:25;;;;;;;;;0.00;0.00;;;;;13.03;79.05;99017.81;4738944;29;45618;-88
2021/12/04 05:15:58;;;;;;;;;0.00;0.00;;;;;13.20;79.16;99053.69;4753781;29;45695;-88
2021/12/04 05:24:13;;;;;;;;;0.00;0.00;;;;;13.21;79.21;99054.50;4749663;29;45902;-88
2021/12/04 05:26:42;;;;;;;;;0.00;0.00;;;;;12.94;78.73;99011.75;4737763;29;45610;-88
2021/12/04 05:29:07;;;;;;;;;0.00;0.00;;;;;12.95;79.14;99025.72;4736961;29;47482;-87
2021/12/04 05:31:38;;;;;;;;;0.00;0.00;;;;;12.90;78.90;99002.50;4751231;29;47193;-88
2021/12/04 05:34:03;;;;;;;;;0.50;0.00;;;;;13.22;78.48;99054.34;4751851;29;45702;-89
2021/12/04 05:36:29;;;;;;;;;0.00;0.00;;;;;12.90;78.74;99004.34;4737341;29;45858;-88
2021/12/04 05:39:18;;;;;;;;;0.00;0.00;;;;;12.65;78.36;98961.44;4755361;29;45617;-90
2021/12/04 05:42:01;;;;;;;;;;;;;;;;;;;;;
2021/12/04 05:44:30;;;;;;;;;0.00;0.00;;;;;13.07;78.53;99020.94;4809518;29;73146;-88
2021/12/04 05:47:25;;;;;;;;;0.00;0.00;;;;;12.67;78.34;98958.66;4794895;29;45707;-88
2021/12/04 05:50:15;;;;;;;;;0.00;0.00;;;;;13.09;78.19;99038.19;4791967;29;47259;-89
2021/12/04 05:55:50;;;;;;;;;;;;;;;;;;;;;
2021/12/04 05:58:27;;;;;;;;;0.00;0.00;;;;;12.96;78.49;99001.03;4809678;29;68112;-89
2021/12/04 06:00:54;;;;;;;;;0.00;0.00;;;;;13.05;78.28;99015.84;4809654;29;47507;-89
2021/12/04 06:03:26;;;;;;;;;0.00;0.00;;;;;13.09;78.41;99018.97;4796425;29;47221;-89
2021/12/04 06:05:55;;;;;;;;;0.00;0.00;;;;;13.31;78.27;99066.50;4800986;29;45359;-89
2021/12/04 06:08:21;;;;;;;;;0.00;0.00;;;;;13.29;78.27;99062.38;4800621;29;45732;-88
2021/12/04 06:10:48;;;;;;;;;0.00;0.00;;;;;12.84;77.85;98987.44;4798820;29;48150;-88
2021/12/04 06:13:19;;;;;;;;;0.50;0.00;;;;;13.24;78.19;99060.25;4795422;29;47274;-87
2021/12/04 06:15:53;;;;;;;;;0.00;0.00;;;;;13.23;78.34;99055.16;4792370;29;45565;-89
2021/12/04 06:18:37;;;;;;;;;0.00;0.00;;;;;13.22;78.36;99043.84;4791556;29;45589;-89
2021/12/04 06:23:50;;;;;;;;;0.00;0.00;;;;;13.17;77.75;99034.78;4806171;29;46082;-88
2021/12/04 06:26:21;;;;;;;;;0.00;0.00;;;;;12.73;77.97;98956.22;4790180;29;45785;-89
2021/12/04 06:29:10;;;;;;;;;0.00;0.00;;;;;13.22;77.84;99035.13;4790095;29;45867;-89
2021/12/04 06:31:55;;;;;;;;;0.00;0.00;;;;;12.85;78.04;98977.72;4806465;29;47143;-88
2021/12/04 06:34:23;;;;;;;;;0.00;0.00;;;;;13.05;78.22;98994.81;4790219;29;47717;-89
2021/12/04 06:36:49;;;;;;;;;0.00;0.00;;;;;13.08;78.23;99002.38;4789977;29;45769;-89
2021/12/04 06:39:20;;;;;;;;;0.00;0.00;;;;;13.09;77.83;99005.81;4808094;29;45911;-87
2021/12/04 06:41:48;;;;;;;;;0.00;0.00;;;;;13.04;78.18;98991.38;4796191;29;48134;-87
2021/12/04 06:44:32;;;;;;;;;0.00;0.00;;;;;13.24;77.96;99023.44;4796944;29;47339;-89
2021/12/04 06:46:58;;;;;;;;;0.00;0.00;;;;;13.27;77.87;99031.00;4796357;29;45641;-88
2021/12/04 06:49:31;;;;;;;;;0.25;0.00;;;;;13.11;78.04;99004.69;4796665;29;46052;-90
2021/12/04 06:52:01;;;;;;;;;0.00;0.00;;;;;12.77;77.72;98938.28;4795562;29;48643;-88
2021/12/04 06:54:41;;;;;;;;;0.00;0.00;;;;;13.29;77.73;99028.19;4795233;29;47617;-89
2021/12/04 06:57:17;;;;;;;;;0.00;0.00;;;;;13.29;78.03;99023.75;4796034;29;45603;-89
2021/12/04 06:59:46;;;;;;;;;0.00;0.00;;;;;12.74;77.93;98928.91;4795333;29;45740;-89
2021/12/04 07:02:16;;;;;;;;;0.00;0.00;;;;;13.11;78.50;98981.03;4794074;29;47470;-88
2021/12/04 07:07:36;;;;;;;;;0.00;0.00;;;;;13.05;78.42;98984.31;4810647;29;45668;-88
2021/12/04 07:10:15;;;;;;;;;0.00;0.00;;;;;13.25;78.44;99013.75;4793715;29;45776;-88
2021/12/04 07:12:41;;;;;;;;;0.00;0.00;;;;;12.86;78.55;98942.56;4793304;29;47319;-85
2021/12/04 07:15:09;;;;;;;;;1.00;0.00;;;;;13.22;78.53;98996.50;4793544;29;47033;-88
2021/12/04 07:17:38;;;;;;;;;0.00;0.00;;;;;12.82;78.65;98941.25;4810194;29;45634;-89
2021/12/04 07:23:26;;;;;;;;;0.00;0.00;;;;;12.71;79.23;98915.31;4811763;29;46024;-77
2021/12/04 07:25:51;;;;;;;;;0.00;0.00;;;;;13.12;79.31;98993.19;4806692;29;46890;-76
2021/12/04 07:28:16;;;;;;;;;0.00;0.00;;;;;13.14;79.30;98993.03;4807059;29;45692;-77
2021/12/04 07:30:43;;;;;;;;;0.00;0.00;;;;;13.08;79.38;98988.41;4807113;29;45554;-76
2021/12/04 07:33:08;;;;;;;;;0.00;0.00;;;;;13.09;79.69;98987.41;4806866;29;47389;-76
2021/12/04 07:38:56;;;;;;;;;0.00;0.00;;;;;13.12;79.92;98998.44;4806790;29;45728;-77
2021/12/04 07:41:22;;;;;;;;;0.50;0.00;;;;;13.12;79.55;98995.03;4806967;29;45550;-77
2021/12/04 07:43:48;;;;;;;;;0.00;0.00;;;;;13.09;80.18;98987.41;4806584;29;46455;-78
2021/12/04 07:46:14;;;;;;;;;0.00;0.00;;;;;13.10;80.24;99000.41;4806757;29;46311;-77
2021/12/04 07:48:40;;;;;;;;;0.00;0.00;;;;;13.08;79.70;98980.50;4807178;29;45607;-76
2021/12/04 07:54:27;;;;;;;;;0.25;0.00;;;;;13.11;79.75;99004.69;4806544;29;46096;-78
2021/12/04 07:56:52;;;;;;;;;0.00;0.00;;;;;13.11;80.38;99007.31;4806730;29;46408;-76
2021/12/04 07:59:18;;;;;;;;;0.00;0.00;;;;;13.09;80.08;99000.56;4806422;29;45674;-77
2021/12/04 08:01:43;;;;;;;;;0.00;0.00;;;;;13.08;80.27;99007.63;4806380;29;45589;-76
2021/12/04 08:04:08;;;;;;;;;0.00;0.00;;;;;13.11;79.74;99023.09;4806355;29;47641;-77
2021/12/04 08:09:55;;;;;;;;;0.75;0.00;;;;;13.15;79.53;99018.34;4806550;29;45663;-77
2021/12/04 08:12:21;;;;;;;;;0.00;0.00;;;;;13.11;79.48;99048.56;4806544;29;45855;-76
2021/12/04 08:14:46;;;;;;;;;0.00;0.00;;;;;13.18;79.08;99010.13;4806510;29;45925;-77
2021/12/04 08:17:12;;;;;;;;;0.00;0.00;;;;;13.19;78.64;99015.22;4806773;29;45713;-77
2021/12/04 08:19:38;;;;;;;;;0.00;0.00;;;;;13.20;78.78;99011.63;4806687;29;45534;-77
2021/12/04 08:25:25;;;;;;;;;0.00;0.00;;;;;13.17;80.94;99038.22;4804737;29;46179;-78
2021/12/04 08:27:51;;;;;;;;;0.00;0.00;;;;;13.10;81.62;99039.84;4806223;29;46380;-77
2021/12/04 08:30:22;;;;;;;;;0.00;0.00;;;;;13.09;82.04;99071.56;4806037;29;45671;-77
2021/12/04 08:32:49;;;;;;;;;0.00;0.00;;;;;13.03;82.58;99047.56;4806063;29;45734;-77
2021/12/04 08:35:18;;;;;;;;;0.00;0.00;;;;;12.98;81.63;99049.03;4806448;29;46599;-77
2021/12/04 08:41:05;;;;;;;;;0.00;0.00;;;;;12.90;81.59;99064.81;4805926;29;45474;-76
2021/12/04 08:43:31;;;;;;;;;0.00;0.00;;;;;12.90;80.68;99060.34;4805755;29;45601;-76
2021/12/04 08:46:00;;;;;;;;;0.00;0.00;;;;;12.90;80.66;99073.50;4806062;29;46336;-77
2021/12/04 08:48:25;;;;;;;;;0.00;0.00;;;;;12.87;80.07;99054.59;4805579;29;47068;-77
2021/12/04 08:50:51;;;;;;;;;0.00;0.00;;;;;12.89;79.00;99047.38;4806008;29;45559;-79
2021/12/04 08:53:16;;;;;;;;;0.00;0.00;;;;;12.80;78.31;99054.41;4805801;29;45676;-77
2021/12/04 08:55:43;;;;;;;;;0.00;0.00;;;;;12.89;78.75;99079.75;4805423;29;47476;-77
2021/12/04 08:58:10;;;;;;;;;0.00;0.00;;;;;12.89;78.07;99074.50;4805603;29;46488;-77
2021/12/04 09:00:48;;;;;;;;;0.00;0.00;;;;;12.90;77.49;99102.41;4805729;29;45718;-78
2021/12/04 09:03:19;;;;;;;;;0.00;0.00;;;;;12.86;77.53;99110.78;4805588;29;45755;-78
2021/12/04 09:05:45;;;;;;;;;0.00;0.00;;;;;12.84;76.99;99097.00;4805734;29;45663;-77
2021/12/04 09:08:11;;;;;;;;;0.00;0.00;;;;;12.77;76.18;99101.22;4805813;29;46361;-77
2021/12/04 09:10:41;;;;;;;;;0.00;0.00;;;;;12.72;75.31;99103.50;4806184;29;45729;-77
2021/12/04 09:13:07;;;;;;;;;0.00;0.00;;;;;12.64;73.96;99201.50;4806047;29;45879;-77
2021/12/04 09:15:33;;;;;;;;;0.00;0.00;;;;;12.56;73.86;99099.84;4805865;29;47296;-78
2021/12/04 09:17:59;;;;;;;;;0.00;0.00;;;;;12.51;73.65;99122.31;4805744;29;46088;-77
2021/12/04 09:20:28;;;;;;;;;0.00;0.00;;;;;12.53;73.64;99144.81;4805831;29;45472;-76
2021/12/04 09:26:30;;;;;;;;;0.00;0.00;;;;;12.47;73.02;99123.63;4804176;29;45674;-77
2021/12/04 09:29:19;;;;;;;;;0.00;0.00;;;;;12.42;72.81;99141.63;4805223;29;47179;-77
2021/12/04 09:34:43;;;;;;;;;0.00;0.00;;;;;12.35;73.17;99136.22;4805138;29;45550;-77
2021/12/04 10:32:37;;;;;;;;;0.00;0.00;;;;;11.98;68.95;99230.97;4804551;29;45642;-76
2021/12/04 10:35:13;;;;;;;;;0.00;0.00;;;;;12.00;68.96;99252.63;4804421;29;46986;-75
2021/12/04 10:37:48;;;;;;;;;0.00;0.00;;;;;11.97;68.54;99260.81;4804354;29;45729;-76
2021/12/04 10:40:14;;;;;;;;;0.25;0.00;;;;;11.87;68.52;99212.84;4804726;29;45721;-77
2021/12/04 10:42:51;;;;;;;;;0.00;0.00;;;;;11.92;68.18;99249.94;4804277;29;46596;-76
2021/12/04 10:45:18;;;;;;;;;0.00;0.00;;;;;11.89;68.02;99247.63;4804476;29;45900;-77
2021/12/04 10:47:58;;;;;;;;;0.00;0.00;;;;;11.86;69.19;99242.69;4804115;29;45698;-76
2021/12/04 10:53:13;;;;;;;;;0.00;0.00;;;;;11.73;70.99;99226.47;4804163;29;46201;-76
2021/12/04 11:00:55;;;;;;;;;0.00;0.00;;;;;11.67;71.92;99245.41;4804429;29;45821;-76
2021/12/04 11:03:39;;;;;;;;;0.00;0.00;;;;;11.63;71.95;99244.88;4803742;29;47720;-77
2021/12/04 11:42:52;;;;;;;;;0.00;0.00;;;;;10.63;80.38;99345.38;4768224;29;45826;-78
2021/12/04 11:45:30;;;;;;;;;0.00;0.00;;;;;10.36;81.25;99304.19;4768323;29;45630;-77
2021/12/04 11:47:58;;;;;;;;;1.00;0.00;;;;;10.09;81.21;99297.81;4768121;29;47449;-77
2021/12/04 11:50:42;;;;;;;;;1.25;0.75;;;;;9.99;81.42;99293.53;4767950;29;47411;-77
2021/12/04 11:56:29;;;;;;;;;1.00;0.75;;;;;9.86;82.21;99322.63;4768175;29;45700;-77
2021/12/04 11:58:55;;;;;;;;;1.00;1.00;;;;;9.80;82.33;99319.72;4768146;29;45813;-77
2021/12/04 12:01:31;;;;;;;;;1.25;1.00;;;;;9.78;83.68;99327.69;4767983;29;46289;-78
2021/12/04 12:04:00;;;;;;;;;1.00;1.00;;;;;9.75;87.41;99348.06;4767710;29;45783;-77
2021/12/04 12:06:30;;;;;;;;;0.25;0.25;;;;;9.68;91.69;99374.75;4767695;29;45786;-77
2021/12/04 12:12:33;;;;;;;;;1.00;1.00;;;;;9.60;93.65;99350.25;4805858;29;46212;-77
2021/12/04 12:15:03;;;;;;;;;1.75;1.50;;;;;9.61;93.90;99342.22;4806428;29;45756;-77
2021/12/04 12:17:36;;;;;;;;;1.00;1.00;;;;;9.56;94.33;99348.81;4806571;29;45486;-77
2021/12/04 12:20:10;;;;;;;;;1.00;1.00;;;;;9.58;94.57;99345.13;4806089;29;46665;-78
2021/12/04 12:22:54;;;;;;;;;3.00;1.25;;;;;9.59;94.80;99367.72;4806200;29;45633;-75
2021/12/04 12:33:41;;;;;;;;;2.00;1.00;;;;;9.59;95.32;99393.03;4805678;29;46149;-77
2021/12/04 12:36:13;;;;;;;;;3.00;2.00;;;;;9.57;95.31;99424.53;4806302;29;45749;-77
2021/12/04 12:38:53;;;;;;;;;2.75;1.75;;;;;9.54;95.59;99395.22;4806015;29;45584;-78
2021/12/04 12:41:34;;;;;;;;;3.00;2.00;;;;;9.64;95.58;99417.81;4805655;29;47536;-77
2021/12/04 12:44:19;;;;;;;;;1.00;0.50;;;;;9.62;95.66;99417.09;4807078;29;45970;-78
2021/12/04 12:46:50;;;;;;;;;1.25;1.25;;;;;9.67;95.44;99441.06;4807754;29;45697;-79
2021/12/04 12:49:34;;;;;;;;;1.25;1.25;;;;;9.73;95.58;99438.88;4807001;29;45603;-77
2021/12/04 12:55:23;;;;;;;;;2.25;1.00;;;;;9.67;95.84;99435.00;4807407;29;45654;-76
2021/12/04 12:57:48;;;;;;;;;2.50;1.00;;;;;9.62;95.66;99426.75;4793916;29;45635;-78
2021/12/04 13:12:08;;;;;;;;;1.00;0.25;;;;;9.67;95.74;99446.31;4750139;29;45770;-78
2021/12/04 13:14:42;;;;;;;;;2.75;1.00;;;;;9.67;95.57;99443.69;4750232;29;45549;-78
2021/12/04 13:17:17;;;;;;;;;1.25;1.25;;;;;9.69;95.54;99440.94;4749840;29;46111;-74
2021/12/04 13:19:48;;;;;;;;;2.75;1.25;;;;;9.73;95.60;99441.50;4749623;29;45621;-77
2021/12/04 13:26:11;;;;;;;;;0.00;0.00;;;;;9.74;95.58;99444.00;4747912;29;46113;-79
2021/12/04 13:28:41;;;;;;;;;1.00;1.00;;;;;9.75;95.51;99461.34;4750285;29;46122;-78
2021/12/04 13:31:08;;;;;;;;;1.50;1.00;;;;;9.76;95.55;99455.16;4749979;29;45855;-77
2021/12/04 13:33:37;;;;;;;;;1.50;1.00;;;;;9.60;95.30;99429.50;4749588;29;45649;-77
2021/12/04 13:36:10;;;;;;;;;1.50;1.00;;;;;9.71;95.25;99474.81;4749212;29;46460;-78
2021/12/04 13:41:58;;;;;;;;;1.00;0.75;;;;;9.73;94.50;99471.09;4762847;29;45656;-77
2021/12/04 13:44:26;;;;;;;;;2.50;1.00;;;;;9.73;94.63;99451.97;4786551;29;45632;-77
2021/12/04 13:46:56;;;;;;;;;1.75;1.00;;;;;9.75;94.73;99439.59;4786639;29;45742;-78
2021/12/04 13:49:26;;;;;;;;;1.00;0.00;;;;;9.71;94.86;99446.88;4786459;29;47540;-79
2021/12/04 13:51:58;;;;;;;;;1.00;0.00;;;;;9.76;94.91;99439.47;4786671;29;45652;-75
2021/12/04 13:57:45;;;;;;;;;3.00;1.00;;;;;9.74;94.18;99428.31;4785631;29;45600;-78
2021/12/04 14:00:13;;;;;;;;;1.25;0.50;;;;;9.69;94.08;99414.81;4770244;29;46954;-78
2021/12/04 14:02:39;;;;;;;;;2.00;1.00;;;;;9.80;94.15;99442.63;4770069;29;45843;-78
2021/12/04 14:05:23;;;;;;;;;2.00;1.00;;;;;9.89;93.99;99436.59;4786539;29;45938;-78
2021/12/04 14:07:54;;;;;;;;;3.25;1.00;;;;;9.90;93.98;99441.72;4786637;29;45582;-77
2021/12/04 14:10:21;;;;;;;;;0.00;0.00;;;;;9.94;94.21;99439.63;4786685;29;46094;-78
2021/12/04 14:12:47;;;;;;;;;1.00;1.00;;;;;9.95;94.31;99451.75;4786724;29;45554;-78
2021/12/04 14:15:16;;;;;;;;;1.50;0.75;;;;;9.91;93.66;99442.53;4786564;29;45686;-78
2021/12/04 14:17:42;;;;;;;;;1.00;0.75;;;;;9.92;93.71;99462.50;4786198;29;46066;-77
2021/12/04 14:20:08;;;;;;;;;1.75;1.00;;;;;9.84;93.69;99441.41;4786635;29;45565;-76
2021/12/04 14:22:44;;;;;;;;;5.00;2.50;;;;;9.83;93.83;99455.44;4770195;29;45762;-78
2021/12/04 14:25:10;;;;;;;;;3.00;1.00;;;;;9.85;93.65;99480.53;4786750;29;45979;-77
2021/12/04 14:27:38;;;;;;;;;0.00;0.00;;;;;9.86;93.69;99484.78;4797038;29;46745;-76
2021/12/04 14:30:09;;;;;;;;;0.00;0.00;;;;;9.74;93.40;99466.69;4804483;29;47498;-77
2021/12/04 14:32:37;;;;;;;;;4.50;0.75;;;;;9.80;93.20;99468.78;4804265;29;45618;-77
2021/12/04 14:35:10;;;;;;;;;3.50;1.75;;;;;9.80;93.22;99498.41;4805011;29;45646;-78
2021/12/04 14:37:41;;;;;;;;;6.25;1.00;;;;;9.84;93.19;99491.09;4804292;29;46509;-78
2021/12/04 14:40:10;;;;;;;;;1.00;0.00;;;;;9.86;92.87;99507.50;4804524;29;46990;-78
2021/12/04 14:42:36;;;;;;;;;0.75;0.00;;;;;9.87;93.00;99514.41;4804355;29;45739;-78
2021/12/04 14:45:17;;;;;;;;;0.00;0.00;;;;;9.86;92.81;99503.09;4804723;29;45559;-77
2021/12/04 14:47:46;;;;;;;;;0.00;0.00;;;;;9.85;93.00;99524.16;4788444;29;47885;-77
2021/12/04 14:50:18;;;;;;;;;0.00;0.00;;;;;9.82;92.34;99514.81;4805252;29;46058;-77
2021/12/04 14:52:53;;;;;;;;;1.00;0.00;;;;;9.81;91.60;99526.22;4805086;29;45637;-78
2021/12/04 14:55:29;;;;;;;;;1.50;1.50;;;;;9.83;91.81;99526.91;4805559;29;45682;-78
2021/12/04 14:57:55;;;;;;;;;1.00;1.00;;;;;9.84;92.21;99551.28;4804295;29;46623;-76
2021/12/04 15:00:30;;;;;;;;;1.25;1.00;;;;;9.84;91.68;99536.41;4804229;29;46131;-77
2021/12/04 15:03:05;;;;;;;;;1.25;1.00;;;;;9.86;91.52;99544.97;4787394;29;45816;-77
2021/12/04 15:05:35;;;;;;;;;0.75;0.25;;;;;9.84;91.40;99536.41;4804281;29;45550;-77
2021/12/04 15:08:08;;;;;;;;;6.00;5.00;;;;;9.87;91.18;99567.56;4804013;29;47234;-77
2021/12/04 15:10:35;;;;;;;;;0.00;0.00;;;;;9.87;91.64;99557.09;4806679;29;45720;-77
2021/12/04 15:13:01;;;;;;;;;0.75;0.00;;;;;9.86;91.28;99551.97;4807363;29;45607;-75
2021/12/04 15:15:34;;;;;;;;;1.25;1.00;;;;;9.84;91.38;99567.78;4807566;29;45504;-77
2021/12/04 15:18:05;;;;;;;;;1.50;0.75;;;;;9.79;91.55;99574.38;4807196;29;47379;-77
2021/12/04 15:20:34;;;;;;;;;1.00;1.00;;;;;9.79;90.58;99584.84;4807209;29;46460;-77
2021/12/04 15:23:07;;;;;;;;;0.50;0.00;;;;;9.77;90.63;99584.94;4807320;29;45652;-77
2021/12/04 15:25:35;;;;;;;;;1.00;1.00;;;;;9.72;90.53;99581.09;4807285;29;45937;-77
2021/12/04 15:28:13;;;;;;;;;1.00;0.00;;;;;9.65;88.93;99626.06;4806940;29;45620;-76
2021/12/04 15:30:46;;;;;;;;;0.00;0.00;;;;;9.58;89.97;99592.69;4790552;29;46065;-77
2021/12/04 15:33:42;;;;;;;;;0.50;0.00;;;;;9.46;89.95;99623.28;4806897;29;45556;-77
2021/12/04 15:36:21;;;;;;;;;0.00;0.00;;;;;9.36;89.61;99593.63;4769069;29;45683;-78
2021/12/04 15:38:51;;;;;;;;;1.00;0.00;;;;;9.22;89.46;99607.03;4753599;29;48353;-74
2021/12/04 15:54:27;;;;;;;;;0.00;0.00;;;;;8.85;87.54;99614.41;4768628;29;45641;-75
2021/12/04 15:56:54;;;;;;;;;0.00;0.00;;;;;8.79;88.54;99618.31;4768714;29;45754;-79
2021/12/04 15:59:25;;;;;;;;;0.00;0.00;;;;;8.74;88.53;99607.41;4768575;29;46591;-79
2021/12/04 16:01:55;;;;;;;;;1.00;0.00;;;;;8.69;88.67;99621.78;4768318;29;46345;-78
2021/12/04 16:04:23;;;;;;;;;0.00;0.00;;;;;8.65;88.26;99617.72;4768665;29;45736;-78
2021/12/04 16:06:50;;;;;;;;;0.25;0.00;;;;;8.63;89.35;99624.88;4768652;29;45754;-76
2021/12/04 16:09:32;;;;;;;;;0.00;0.00;;;;;8.55;89.24;99622.03;4768643;29;46561;-78
2021/12/04 16:12:07;;;;;;;;;0.00;0.00;;;;;8.51;89.70;99621.44;4778496;29;46393;-77
2021/12/04 16:14:37;;;;;;;;;0.00;0.00;;;;;8.52;89.50;99632.72;4806740;29;45499;-76
2021/12/04 16:17:06;;;;;;;;;0.00;0.00;;;;;8.38;90.01;99629.38;4790233;29;45558;-78
2021/12/04 16:19:33;;;;;;;;;1.00;0.00;;;;;8.35;89.20;99632.25;4805159;29;47634;-76
2021/12/04 16:22:07;;;;;;;;;0.00;0.00;;;;;8.37;89.65;99639.94;4805779;29;46072;-77
2021/12/04 16:24:33;;;;;;;;;1.00;0.00;;;;;8.18;89.27;99627.47;4806293;29;45534;-77
2021/12/04 16:27:18;;;;;;;;;0.00;0.00;;;;;8.30;89.59;99657.88;4790075;29;45868;-77
2021/12/04 16:29:53;;;;;;;;;1.00;0.00;;;;;8.21;90.05;99647.25;4790197;29;47663;-77